Guemes Island, Washington
Current Conditions -  °F | °C
As of 5:56 PM on Saturday 20 Dec 2014 (Local Time) from KNUW Reporting Station
Moderate Rain Moderate Rain  
Wind Chill: 52°   Ceiling: 1100
Heat Index: 52°   Visibility: 5mi
Dew Point: 48°   Wind: 23mph
Humidity: 86%   Direction: 150°SSE
Pressure: 29.4"   Gusts: 31mph
Location:  48.4652°N, 122.617°W
Report Text: KNUW 210156Z 15020G27KT 5SM RA BR FEW008 BKN011 OVC020 11/09 A2940 RMK AO2 PK WND 14031/0108 SLP958 P0005 T01110089 VISNO E $
Loading
Personal Weather Stations






























Interactive Weather Map New forecast layout! Learn more

10-Day Weather Forecast

Advertisements
Track Severe Weather on mobile